sensor_id;sensor_type;location;lat;lon;timestamp;pressure;altitude;pressure_sealevel;temperature;humidity
21879;BME280;27908;42.708;23.278;2022-07-19T00:01:12;62324.25;;;18.87;77.95
21879;BME280;27908;42.708;23.278;2022-07-19T00:03:38;62342.25;;;18.89;77.59
21879;BME280;27908;42.708;23.278;2022-07-19T00:06:03;62327.81;;;18.88;77.56
21879;BME280;27908;42.708;23.278;2022-07-19T00:08:29;62335.38;;;18.77;77.89
21879;BME280;27908;42.708;23.278;2022-07-19T00:10:54;62325.56;;;18.78;78.46
21879;BME280;27908;42.708;23.278;2022-07-19T00:13:20;62298.59;;;18.82;78.92
21879;BME280;27908;42.708;23.278;2022-07-19T00:15:46;62320.03;;;18.90;78.95
21879;BME280;27908;42.708;23.278;2022-07-19T00:18:11;62293.69;;;18.89;78.83
21879;BME280;27908;42.708;23.278;2022-07-19T00:20:37;62332.50;;;18.87;78.82
21879;BME280;27908;42.708;23.278;2022-07-19T00:23:02;62339.16;;;18.88;78.88
21879;BME280;27908;42.708;23.278;2022-07-19T00:25:28;62388.31;;;18.86;79.56
21879;BME280;27908;42.708;23.278;2022-07-19T00:27:53;62326.06;;;18.78;79.42
21879;BME280;27908;42.708;23.278;2022-07-19T00:30:19;62357.63;;;18.76;79.61
21879;BME280;27908;42.708;23.278;2022-07-19T00:32:44;62321.81;;;18.82;79.87
21879;BME280;27908;42.708;23.278;2022-07-19T00:35:10;62362.63;;;18.81;80.38
21879;BME280;27908;42.708;23.278;2022-07-19T00:37:35;62328.06;;;18.80;80.20
21879;BME280;27908;42.708;23.278;2022-07-19T00:40:01;62286.78;;;18.80;80.44
21879;BME280;27908;42.708;23.278;2022-07-19T00:42:27;62278.00;;;18.79;80.32
21879;BME280;27908;42.708;23.278;2022-07-19T00:44:52;62309.66;;;18.75;80.78
21879;BME280;27908;42.708;23.278;2022-07-19T00:47:17;62304.00;;;18.74;80.84
21879;BME280;27908;42.708;23.278;2022-07-19T00:49:43;62320.06;;;18.72;80.56
21879;BME280;27908;42.708;23.278;2022-07-19T00:52:09;62264.84;;;18.56;80.99
21879;BME280;27908;42.708;23.278;2022-07-19T00:54:35;62271.69;;;18.68;80.97
21879;BME280;27908;42.708;23.278;2022-07-19T00:57:02;62331.50;;;18.53;81.22
21879;BME280;27908;42.708;23.278;2022-07-19T00:59:28;62350.84;;;18.62;81.59
21879;BME280;27908;42.708;23.278;2022-07-19T01:01:55;62326.19;;;18.58;81.43
21879;BME280;27908;42.708;23.278;2022-07-19T01:04:21;62295.81;;;18.56;81.62
21879;BME280;27908;42.708;23.278;2022-07-19T01:06:46;62339.59;;;18.58;81.51
21879;BME280;27908;42.708;23.278;2022-07-19T01:09:12;62299.03;;;18.52;81.63
21879;BME280;27908;42.708;23.278;2022-07-19T01:11:39;62322.56;;;18.42;81.92
21879;BME280;27908;42.708;23.278;2022-07-19T01:14:04;62338.75;;;18.52;82.26
21879;BME280;27908;42.708;23.278;2022-07-19T01:16:30;62340.41;;;18.49;82.34
21879;BME280;27908;42.708;23.278;2022-07-19T01:18:55;62277.03;;;18.45;82.60
21879;BME280;27908;42.708;23.278;2022-07-19T01:21:22;62319.19;;;18.51;82.62
21879;BME280;27908;42.708;23.278;2022-07-19T01:23:48;62308.81;;;18.36;82.79
21879;BME280;27908;42.708;23.278;2022-07-19T01:26:14;62286.94;;;18.42;82.95
21879;BME280;27908;42.708;23.278;2022-07-19T01:28:41;62242.06;;;18.41;83.31
21879;BME280;27908;42.708;23.278;2022-07-19T01:31:06;62295.34;;;18.38;82.99
21879;BME280;27908;42.708;23.278;2022-07-19T01:33:37;62273.13;;;18.39;83.42
21879;BME280;27908;42.708;23.278;2022-07-19T01:36:02;62314.41;;;18.39;83.25
21879;BME280;27908;42.708;23.278;2022-07-19T01:38:28;62324.31;;;18.36;83.41
21879;BME280;27908;42.708;23.278;2022-07-19T01:40:53;62280.47;;;18.18;83.50
21879;BME280;27908;42.708;23.278;2022-07-19T01:43:19;62299.16;;;18.31;83.43
21879;BME280;27908;42.708;23.278;2022-07-19T01:45:44;62301.75;;;18.31;83.94
21879;BME280;27908;42.708;23.278;2022-07-19T01:48:09;62289.25;;;18.34;83.92
21879;BME280;27908;42.708;23.278;2022-07-19T01:50:35;62290.50;;;18.28;83.77
21879;BME280;27908;42.708;23.278;2022-07-19T01:53:00;62266.78;;;18.27;84.16
21879;BME280;27908;42.708;23.278;2022-07-19T01:55:26;62256.69;;;18.20;83.82
21879;BME280;27908;42.708;23.278;2022-07-19T01:57:51;62299.81;;;18.27;83.73
21879;BME280;27908;42.708;23.278;2022-07-19T02:00:17;62304.53;;;18.24;84.20
21879;BME280;27908;42.708;23.278;2022-07-19T02:02:42;62279.81;;;18.22;84.50
21879;BME280;27908;42.708;23.278;2022-07-19T02:05:08;62273.25;;;18.18;84.80
21879;BME280;27908;42.708;23.278;2022-07-19T02:07:34;62278.25;;;18.23;84.36
21879;BME280;27908;42.708;23.278;2022-07-19T02:09:59;62273.31;;;18.16;84.60
21879;BME280;27908;42.708;23.278;2022-07-19T02:12:25;62285.72;;;18.16;84.95
21879;BME280;27908;42.708;23.278;2022-07-19T02:14:50;62292.59;;;18.10;84.99
21879;BME280;27908;42.708;23.278;2022-07-19T02:17:16;62255.50;;;18.09;84.66
21879;BME280;27908;42.708;23.278;2022-07-19T02:19:41;62298.69;;;18.13;84.88
21879;BME280;27908;42.708;23.278;2022-07-19T02:22:06;62266.81;;;18.10;84.49
21879;BME280;27908;42.708;23.278;2022-07-19T02:24:32;62278.66;;;18.11;84.72
21879;BME280;27908;42.708;23.278;2022-07-19T02:26:57;62295.31;;;18.05;84.78
21879;BME280;27908;42.708;23.278;2022-07-19T02:29:23;62269.53;;;18.05;84.87
21879;BME280;27908;42.708;23.278;2022-07-19T02:31:48;62270.56;;;17.88;85.35
21879;BME280;27908;42.708;23.278;2022-07-19T02:34:14;62282.56;;;18.00;84.97
21879;BME280;27908;42.708;23.278;2022-07-19T02:36:39;62267.28;;;17.95;85.28
21879;BME280;27908;42.708;23.278;2022-07-19T02:39:05;62267.19;;;17.97;85.50
21879;BME280;27908;42.708;23.278;2022-07-19T02:41:30;62268.34;;;17.93;85.43
21879;BME280;27908;42.708;23.278;2022-07-19T02:43:57;62240.63;;;17.89;85.36
21879;BME280;27908;42.708;23.278;2022-07-19T02:46:22;62272.38;;;17.80;85.54
21879;BME280;27908;42.708;23.278;2022-07-19T02:48:47;62220.44;;;17.92;85.72
21879;BME280;27908;42.708;23.278;2022-07-19T02:51:13;62230.81;;;17.89;85.38
21879;BME280;27908;42.708;23.278;2022-07-19T02:53:38;62230.91;;;17.87;85.50
21879;BME280;27908;42.708;23.278;2022-07-19T02:56:04;62272.72;;;17.85;85.94
21879;BME280;27908;42.708;23.278;2022-07-19T02:58:29;62232.47;;;17.86;85.88
21879;BME280;27908;42.708;23.278;2022-07-19T03:00:55;62249.03;;;17.84;85.36
21879;BME280;27908;42.708;23.278;2022-07-19T03:03:20;62218.25;;;17.80;85.72
21879;BME280;27908;42.708;23.278;2022-07-19T03:06:04;62249.31;;;17.75;85.62
21879;BME280;27908;42.708;23.278;2022-07-19T03:08:30;62255.91;;;17.79;85.98
21879;BME280;27908;42.708;23.278;2022-07-19T03:10:55;62249.31;;;17.75;86.00
21879;BME280;27908;42.708;23.278;2022-07-19T03:13:20;62250.25;;;17.78;86.16
21879;BME280;27908;42.708;23.278;2022-07-19T03:15:46;62228.94;;;17.67;86.65
21879;BME280;27908;42.708;23.278;2022-07-19T03:18:11;62241.72;;;17.70;86.30
21879;BME280;27908;42.708;23.278;2022-07-19T03:20:37;62195.25;;;17.72;86.28
21879;BME280;27908;42.708;23.278;2022-07-19T03:23:02;62223.13;;;17.72;86.37
21879;BME280;27908;42.708;23.278;2022-07-19T03:25:28;62190.13;;;17.39;86.20
21879;BME280;27908;42.708;23.278;2022-07-19T03:27:53;62258.22;;;17.71;86.84
21879;BME280;27908;42.708;23.278;2022-07-19T03:30:19;62162.53;;;17.47;86.79
21879;BME280;27908;42.708;23.278;2022-07-19T03:32:45;62239.41;;;17.62;86.61
21879;BME280;27908;42.708;23.278;2022-07-19T03:35:10;62248.13;;;17.63;86.85
21879;BME280;27908;42.708;23.278;2022-07-19T03:37:36;62233.50;;;17.69;87.19
21879;BME280;27908;42.708;23.278;2022-07-19T03:40:02;62195.25;;;17.72;86.99
21879;BME280;27908;42.708;23.278;2022-07-19T03:42:28;62211.38;;;17.68;87.01
21879;BME280;27908;42.708;23.278;2022-07-19T03:44:53;62164.59;;;17.65;87.02
21879;BME280;27908;42.708;23.278;2022-07-19T03:47:19;62185.00;;;17.54;87.75
21879;BME280;27908;42.708;23.278;2022-07-19T03:49:44;62205.53;;;17.57;88.39
21879;BME280;27908;42.708;23.278;2022-07-19T03:52:10;62193.06;;;17.60;87.76
21879;BME280;27908;42.708;23.278;2022-07-19T03:54:36;62191.47;;;17.45;87.54
21879;BME280;27908;42.708;23.278;2022-07-19T03:57:01;62173.38;;;17.48;87.05
21879;BME280;27908;42.708;23.278;2022-07-19T03:59:27;62182.84;;;17.57;87.12
21879;BME280;27908;42.708;23.278;2022-07-19T04:01:52;62227.31;;;17.53;87.57
21879;BME280;27908;42.708;23.278;2022-07-19T04:04:18;62217.56;;;17.51;88.54
21879;BME280;27908;42.708;23.278;2022-07-19T04:06:44;62177.34;;;17.52;88.47
21879;BME280;27908;42.708;23.278;2022-07-19T04:09:09;62182.50;;;17.52;88.71
21879;BME280;27908;42.708;23.278;2022-07-19T04:11:35;62198.88;;;17.55;88.35
21879;BME280;27908;42.708;23.278;2022-07-19T04:14:00;62148.28;;;17.59;88.51
21879;BME280;27908;42.708;23.278;2022-07-19T04:16:25;62168.22;;;17.63;87.56
21879;BME280;27908;42.708;23.278;2022-07-19T04:18:51;62168.78;;;17.46;87.92
21879;BME280;27908;42.708;23.278;2022-07-19T04:21:16;62208.53;;;17.60;88.29
21879;BME280;27908;42.708;23.278;2022-07-19T04:23:42;62161.56;;;17.62;87.89
21879;BME280;27908;42.708;23.278;2022-07-19T04:26:07;62157.75;;;17.68;88.14
21879;BME280;27908;42.708;23.278;2022-07-19T04:28:33;62170.06;;;17.55;87.22
21879;BME280;27908;42.708;23.278;2022-07-19T04:30:58;62208.22;;;17.70;87.65
21879;BME280;27908;42.708;23.278;2022-07-19T04:33:24;62166.34;;;17.74;87.43
21879;BME280;27908;42.708;23.278;2022-07-19T04:35:49;62188.53;;;17.73;86.93
21879;BME280;27908;42.708;23.278;2022-07-19T04:38:15;62180.66;;;17.78;87.10
21879;BME280;27908;42.708;23.278;2022-07-19T04:40:40;62108.81;;;17.83;87.43
21879;BME280;27908;42.708;23.278;2022-07-19T04:43:06;62180.44;;;18.01;87.67
21879;BME280;27908;42.708;23.278;2022-07-19T04:45:31;62132.50;;;17.84;86.62
21879;BME280;27908;42.708;23.278;2022-07-19T04:47:57;62148.28;;;18.07;86.76
21879;BME280;27908;42.708;23.278;2022-07-19T04:50:22;62156.66;;;18.03;86.92
21879;BME280;27908;42.708;23.278;2022-07-19T04:52:48;62225.00;;;18.27;86.11
21879;BME280;27908;42.708;23.278;2022-07-19T04:55:13;62111.59;;;18.40;85.72
21879;BME280;27908;42.708;23.278;2022-07-19T04:57:39;62172.66;;;18.34;85.53
21879;BME280;27908;42.708;23.278;2022-07-19T05:00:08;62223.19;;;18.51;84.66
21879;BME280;27908;42.708;23.278;2022-07-19T05:02:37;62182.56;;;18.61;84.51
21879;BME280;27908;42.708;23.278;2022-07-19T05:05:03;62178.09;;;18.72;84.03
21879;BME280;27908;42.708;23.278;2022-07-19T05:07:29;62161.50;;;18.89;83.71
21879;BME280;27908;42.708;23.278;2022-07-19T05:09:54;62169.84;;;19.02;82.39
21879;BME280;27908;42.708;23.278;2022-07-19T05:12:20;62154.56;;;19.10;81.67
21879;BME280;27908;42.708;23.278;2022-07-19T05:14:45;62178.88;;;19.24;81.72
21879;BME280;27908;42.708;23.278;2022-07-19T05:17:11;62207.53;;;19.32;82.05
21879;BME280;27908;42.708;23.278;2022-07-19T05:19:37;62159.22;;;19.25;80.10
21879;BME280;27908;42.708;23.278;2022-07-19T05:22:02;62174.59;;;19.43;80.22
21879;BME280;27908;42.708;23.278;2022-07-19T05:24:28;62214.16;;;19.49;81.25
21879;BME280;27908;42.708;23.278;2022-07-19T05:26:53;62198.44;;;19.41;79.53
21879;BME280;27908;42.708;23.278;2022-07-19T05:29:19;62237.91;;;19.64;79.77
21879;BME280;27908;42.708;23.278;2022-07-19T05:31:45;62151.66;;;19.76;80.35
21879;BME280;27908;42.708;23.278;2022-07-19T05:34:10;62182.34;;;19.71;78.59
21879;BME280;27908;42.708;23.278;2022-07-19T05:36:36;62171.41;;;19.88;79.69
21879;BME280;27908;42.708;23.278;2022-07-19T05:39:02;62210.53;;;19.94;79.33
21879;BME280;27908;42.708;23.278;2022-07-19T05:41:28;62229.06;;;20.09;78.83
21879;BME280;27908;42.708;23.278;2022-07-19T05:43:53;62193.44;;;20.07;77.21
21879;BME280;27908;42.708;23.278;2022-07-19T05:46:19;62226.94;;;19.97;77.78
21879;BME280;27908;42.708;23.278;2022-07-19T05:48:45;62235.16;;;20.13;76.07
21879;BME280;27908;42.708;23.278;2022-07-19T05:51:11;62227.50;;;20.10;76.01
21879;BME280;27908;42.708;23.278;2022-07-19T05:53:36;62242.53;;;20.10;76.53
21879;BME280;27908;42.708;23.278;2022-07-19T05:56:04;62226.53;;;20.22;76.55
21879;BME280;27908;42.708;23.278;2022-07-19T05:58:29;62253.31;;;20.26;75.90
21879;BME280;27908;42.708;23.278;2022-07-19T06:00:55;62261.75;;;20.21;75.13
21879;BME280;27908;42.708;23.278;2022-07-19T06:03:39;62269.63;;;20.47;76.63
21879;BME280;27908;42.708;23.278;2022-07-19T06:06:05;62245.84;;;20.59;76.91
21879;BME280;27908;42.708;23.278;2022-07-19T06:08:30;62268.31;;;20.69;74.06
21879;BME280;27908;42.708;23.278;2022-07-19T06:13:21;62225.50;;;20.90;74.62
21879;BME280;27908;42.708;23.278;2022-07-19T06:15:47;62270.00;;;21.06;73.89
21879;BME280;27908;42.708;23.278;2022-07-19T06:18:12;62242.47;;;20.94;73.88
21879;BME280;27908;42.708;23.278;2022-07-19T06:20:37;62286.06;;;21.19;72.31
21879;BME280;27908;42.708;23.278;2022-07-19T06:23:03;62273.41;;;21.25;71.89
21879;BME280;27908;42.708;23.278;2022-07-19T06:25:28;62246.00;;;21.23;71.87
21879;BME280;27908;42.708;23.278;2022-07-19T06:27:54;62230.78;;;21.42;72.66
21879;BME280;27908;42.708;23.278;2022-07-19T06:30:19;62295.00;;;21.43;71.26
21879;BME280;27908;42.708;23.278;2022-07-19T06:32:45;62278.94;;;21.43;70.63
21879;BME280;27908;42.708;23.278;2022-07-19T06:35:10;62303.00;;;21.10;69.95
21879;BME280;27908;42.708;23.278;2022-07-19T06:37:37;62283.88;;;21.22;71.38
21879;BME280;27908;42.708;23.278;2022-07-19T06:40:02;62300.50;;;21.49;73.33
21879;BME280;27908;42.708;23.278;2022-07-19T06:42:28;62292.81;;;21.46;70.04
21879;BME280;27908;42.708;23.278;2022-07-19T06:44:53;62277.53;;;21.39;71.02
21879;BME280;27908;42.708;23.278;2022-07-19T06:47:19;62342.69;;;21.57;71.30
21879;BME280;27908;42.708;23.278;2022-07-19T06:49:44;62287.66;;;21.72;70.26
21879;BME280;27908;42.708;23.278;2022-07-19T06:52:10;62272.09;;;21.72;70.27
21879;BME280;27908;42.708;23.278;2022-07-19T06:54:35;62338.63;;;21.81;68.69
21879;BME280;27908;42.708;23.278;2022-07-19T06:57:00;62305.72;;;21.87;68.11
21879;BME280;27908;42.708;23.278;2022-07-19T06:59:26;62297.44;;;21.87;68.51
21879;BME280;27908;42.708;23.278;2022-07-19T07:01:51;62292.75;;;21.87;68.73
21879;BME280;27908;42.708;23.278;2022-07-19T07:04:18;62375.38;;;21.97;67.87
21879;BME280;27908;42.708;23.278;2022-07-19T07:06:43;62337.06;;;22.08;66.71
21879;BME280;27908;42.708;23.278;2022-07-19T07:09:09;62297.03;;;22.22;67.70
21879;BME280;27908;42.708;23.278;2022-07-19T07:11:34;62307.72;;;22.28;65.05
21879;BME280;27908;42.708;23.278;2022-07-19T07:14:00;62343.09;;;22.40;66.80
21879;BME280;27908;42.708;23.278;2022-07-19T07:16:25;62366.78;;;22.45;63.34
21879;BME280;27908;42.708;23.278;2022-07-19T07:18:50;62411.91;;;22.46;63.28
21879;BME280;27908;42.708;23.278;2022-07-19T07:21:16;62388.03;;;22.33;64.18
21879;BME280;27908;42.708;23.278;2022-07-19T07:23:42;62391.94;;;22.52;61.68
21879;BME280;27908;42.708;23.278;2022-07-19T07:26:07;62419.34;;;22.82;60.70
21879;BME280;27908;42.708;23.278;2022-07-19T07:28:33;62453.13;;;22.94;60.46
21879;BME280;27908;42.708;23.278;2022-07-19T07:30:58;62421.75;;;23.12;62.26
21879;BME280;27908;42.708;23.278;2022-07-19T07:33:23;62401.31;;;23.28;58.75
21879;BME280;27908;42.708;23.278;2022-07-19T07:35:49;62382.97;;;23.43;59.92
21879;BME280;27908;42.708;23.278;2022-07-19T07:38:15;62501.56;;;23.45;55.09
21879;BME280;27908;42.708;23.278;2022-07-19T07:40:40;62495.66;;;23.75;56.93
21879;BME280;27908;42.708;23.278;2022-07-19T07:43:05;62569.44;;;23.78;52.94
21879;BME280;27908;42.708;23.278;2022-07-19T07:45:32;62544.28;;;23.94;54.98
21879;BME280;27908;42.708;23.278;2022-07-19T07:47:58;62580.53;;;23.99;52.93
21879;BME280;27908;42.708;23.278;2022-07-19T07:50:24;62542.88;;;24.03;54.60
21879;BME280;27908;42.708;23.278;2022-07-19T07:52:50;62673.00;;;24.19;54.96
21879;BME280;27908;42.708;23.278;2022-07-19T07:55:15;62596.47;;;24.30;53.57
21879;BME280;27908;42.708;23.278;2022-07-19T07:57:42;62635.84;;;24.49;52.18
21879;BME280;27908;42.708;23.278;2022-07-19T08:00:08;62637.22;;;24.65;51.76
21879;BME280;27908;42.708;23.278;2022-07-19T08:02:43;62633.44;;;24.69;50.81
21879;BME280;27908;42.708;23.278;2022-07-19T08:05:10;62608.75;;;24.86;52.55
21879;BME280;27908;42.708;23.278;2022-07-19T08:07:36;62691.69;;;24.99;49.38
21879;BME280;27908;42.708;23.278;2022-07-19T08:10:04;62710.25;;;25.04;49.60
21879;BME280;27908;42.708;23.278;2022-07-19T08:12:31;62814.94;;;24.81;44.70
21879;BME280;27908;42.708;23.278;2022-07-19T08:14:56;62787.13;;;24.59;46.42
21879;BME280;27908;42.708;23.278;2022-07-19T08:17:22;62825.94;;;24.66;46.43
21879;BME280;27908;42.708;23.278;2022-07-19T08:19:47;62856.16;;;24.81;45.25
21879;BME280;27908;42.708;23.278;2022-07-19T08:22:16;62815.78;;;25.00;44.81
21879;BME280;27908;42.708;23.278;2022-07-19T08:24:44;62868.16;;;24.95;44.24
21879;BME280;27908;42.708;23.278;2022-07-19T08:27:09;62896.16;;;25.12;43.75
21879;BME280;27908;42.708;23.278;2022-07-19T08:29:35;62866.47;;;25.11;44.31
21879;BME280;27908;42.708;23.278;2022-07-19T08:32:00;62878.53;;;25.23;45.56
21879;BME280;27908;42.708;23.278;2022-07-19T08:34:27;62811.59;;;25.39;46.10
21879;BME280;27908;42.708;23.278;2022-07-19T08:36:52;62851.34;;;25.50;45.05
21879;BME280;27908;42.708;23.278;2022-07-19T08:39:18;62862.63;;;25.56;45.47
21879;BME280;27908;42.708;23.278;2022-07-19T08:41:44;62826.97;;;25.60;43.63
21879;BME280;27908;42.708;23.278;2022-07-19T08:44:10;62858.41;;;25.57;43.48
21879;BME280;27908;42.708;23.278;2022-07-19T08:46:36;62888.19;;;25.43;42.25
21879;BME280;27908;42.708;23.278;2022-07-19T08:49:02;62867.00;;;25.38;43.50
21879;BME280;27908;42.708;23.278;2022-07-19T08:51:28;62925.75;;;25.44;42.97
21879;BME280;27908;42.708;23.278;2022-07-19T08:53:53;62883.00;;;25.56;44.29
21879;BME280;27908;42.708;23.278;2022-07-19T08:56:20;62838.22;;;25.66;43.68
21879;BME280;27908;42.708;23.278;2022-07-19T08:59:05;62916.75;;;25.61;44.17
21879;BME280;27908;42.708;23.278;2022-07-19T09:01:30;62913.47;;;25.78;43.23
21879;BME280;27908;42.708;23.278;2022-07-19T09:04:10;62912.56;;;25.87;43.86
21879;BME280;27908;42.708;23.278;2022-07-19T09:06:45;62945.13;;;26.09;42.60
21879;BME280;27908;42.708;23.278;2022-07-19T09:09:13;62947.88;;;26.19;42.85
21879;BME280;27908;42.708;23.278;2022-07-19T09:11:41;62889.66;;;26.37;43.94
21879;BME280;27908;42.708;23.278;2022-07-19T09:14:21;62873.97;;;26.37;44.17
21879;BME280;27908;42.708;23.278;2022-07-19T09:16:59;62911.75;;;26.58;41.82
21879;BME280;27908;42.708;23.278;2022-07-19T09:19:33;62913.75;;;26.86;43.58
21879;BME280;27908;42.708;23.278;2022-07-19T09:22:16;62899.72;;;26.95;42.20
21879;BME280;27908;42.708;23.278;2022-07-19T09:24:45;62875.22;;;27.18;43.88
21879;BME280;27908;42.708;23.278;2022-07-19T09:27:13;62897.94;;;27.24;43.21
21879;BME280;27908;42.708;23.278;2022-07-19T09:29:47;62906.94;;;27.46;41.36
21879;BME280;27908;42.708;23.278;2022-07-19T09:32:16;62936.78;;;27.34;40.12
21879;BME280;27908;42.708;23.278;2022-07-19T09:37:23;62832.34;;;27.96;41.90
21879;BME280;27908;42.708;23.278;2022-07-19T09:40:02;62921.03;;;28.06;41.45
21879;BME280;27908;42.708;23.278;2022-07-19T09:42:42;62895.19;;;27.86;40.25
21879;BME280;27908;42.708;23.278;2022-07-19T09:45:14;62889.06;;;28.06;43.38
21879;BME280;27908;42.708;23.278;2022-07-19T09:47:45;62929.63;;;28.25;40.91
21879;BME280;27908;42.708;23.278;2022-07-19T09:50:17;62957.50;;;28.34;40.57
21879;BME280;27908;42.708;23.278;2022-07-19T09:52:44;62925.56;;;28.44;39.63
21879;BME280;27908;42.708;23.278;2022-07-19T09:55:11;63043.91;;;28.14;38.18
21879;BME280;27908;42.708;23.278;2022-07-19T09:57:42;63032.31;;;27.66;38.16
21879;BME280;27908;42.708;23.278;2022-07-19T10:00:10;62984.22;;;27.76;40.48
21879;BME280;27908;42.708;23.278;2022-07-19T10:02:39;63019.81;;;27.77;43.10
21879;BME280;27908;42.708;23.278;2022-07-19T10:05:05;62933.56;;;27.95;42.17
21879;BME280;27908;42.708;23.278;2022-07-19T10:07:32;63013.22;;;27.84;40.06
21879;BME280;27908;42.708;23.278;2022-07-19T10:10:01;63006.44;;;27.59;39.39
21879;BME280;27908;42.708;23.278;2022-07-19T10:12:28;63010.81;;;27.17;40.13
21879;BME280;27908;42.708;23.278;2022-07-19T10:14:55;62985.59;;;26.82;41.63
21879;BME280;27908;42.708;23.278;2022-07-19T10:17:41;62966.28;;;26.43;41.76
21879;BME280;27908;42.708;23.278;2022-07-19T10:20:10;63003.97;;;26.54;43.57
21879;BME280;27908;42.708;23.278;2022-07-19T10:22:40;62991.00;;;27.03;41.98
21879;BME280;27908;42.708;23.278;2022-07-19T10:25:12;62938.50;;;27.31;41.62
21879;BME280;27908;42.708;23.278;2022-07-19T10:27:41;62982.28;;;27.48;40.90
21879;BME280;27908;42.708;23.278;2022-07-19T10:32:33;63005.91;;;27.71;41.04
21879;BME280;27908;42.708;23.278;2022-07-19T10:37:53;63007.91;;;28.45;40.01
21879;BME280;27908;42.708;23.278;2022-07-19T10:40:38;63022.41;;;28.49;37.88
21879;BME280;27908;42.708;23.278;2022-07-19T10:43:13;63027.22;;;28.00;38.83
21879;BME280;27908;42.708;23.278;2022-07-19T10:48:35;63002.97;;;28.15;40.38
21879;BME280;27908;42.708;23.278;2022-07-19T10:51:01;62937.75;;;28.07;41.00
21879;BME280;27908;42.708;23.278;2022-07-19T10:56:31;62973.94;;;29.10;39.69
21879;BME280;27908;42.708;23.278;2022-07-19T10:59:03;62969.66;;;29.44;40.21
21879;BME280;27908;42.708;23.278;2022-07-19T11:01:32;62930.94;;;29.63;38.70
21879;BME280;27908;42.708;23.278;2022-07-19T11:04:35;63002.59;;;29.92;37.28
21879;BME280;27908;42.708;23.278;2022-07-19T11:07:16;63040.16;;;29.54;35.41
21879;BME280;27908;42.708;23.278;2022-07-19T11:09:48;63003.16;;;29.26;35.94
21879;BME280;27908;42.708;23.278;2022-07-19T11:12:31;63137.25;;;29.10;37.36
21879;BME280;27908;42.708;23.278;2022-07-19T11:14:58;63071.44;;;29.02;36.05
21879;BME280;27908;42.708;23.278;2022-07-19T11:17:24;63042.94;;;29.05;38.35
21879;BME280;27908;42.708;23.278;2022-07-19T11:20:11;62996.34;;;29.14;38.18
21879;BME280;27908;42.708;23.278;2022-07-19T11:22:46;63112.00;;;29.11;36.29
21879;BME280;27908;42.708;23.278;2022-07-19T11:25:13;63064.91;;;28.96;38.85
21879;BME280;27908;42.708;23.278;2022-07-19T11:27:41;63111.31;;;28.80;36.83
21879;BME280;27908;42.708;23.278;2022-07-19T11:30:07;63053.00;;;28.69;38.38
21879;BME280;27908;42.708;23.278;2022-07-19T11:32:33;63106.44;;;28.47;36.38
21879;BME280;27908;42.708;23.278;2022-07-19T11:35:04;63063.53;;;28.56;39.10
21879;BME280;27908;42.708;23.278;2022-07-19T11:37:32;63046.03;;;28.49;38.67
21879;BME280;27908;42.708;23.278;2022-07-19T11:39:58;62963.25;;;28.58;40.51
21879;BME280;27908;42.708;23.278;2022-07-19T11:44:57;63026.53;;;29.20;37.41
21879;BME280;27908;42.708;23.278;2022-07-19T11:47:23;63044.63;;;29.48;36.87
21879;BME280;27908;42.708;23.278;2022-07-19T11:49:49;63045.81;;;29.68;36.81
21879;BME280;27908;42.708;23.278;2022-07-19T11:52:14;63081.25;;;29.40;35.58
21879;BME280;27908;42.708;23.278;2022-07-19T11:54:40;63141.75;;;29.51;34.82
21879;BME280;27908;42.708;23.278;2022-07-19T11:57:22;63100.78;;;29.16;35.72
21879;BME280;27908;42.708;23.278;2022-07-19T11:59:48;63076.56;;;29.51;38.10
21879;BME280;27908;42.708;23.278;2022-07-19T12:02:13;63066.03;;;29.85;36.05
21879;BME280;27908;42.708;23.278;2022-07-19T12:04:39;63053.09;;;30.13;36.13
21879;BME280;27908;42.708;23.278;2022-07-19T12:07:04;63076.69;;;30.26;34.15
21879;BME280;27908;42.708;23.278;2022-07-19T12:09:30;63073.94;;;30.29;35.91
21879;BME280;27908;42.708;23.278;2022-07-19T12:11:59;63119.91;;;29.68;35.17
21879;BME280;27908;42.708;23.278;2022-07-19T12:14:36;63131.63;;;29.54;36.61
21879;BME280;27908;42.708;23.278;2022-07-19T12:17:16;63130.91;;;29.35;36.30
21879;BME280;27908;42.708;23.278;2022-07-19T12:19:46;63060.31;;;29.28;36.91
21879;BME280;27908;42.708;23.278;2022-07-19T12:22:35;63175.00;;;28.88;35.21
21879;BME280;27908;42.708;23.278;2022-07-19T12:25:01;63186.34;;;28.68;35.95
21879;BME280;27908;42.708;23.278;2022-07-19T12:27:27;63130.19;;;28.80;36.04
21879;BME280;27908;42.708;23.278;2022-07-19T12:29:54;63113.16;;;28.97;37.25
21879;BME280;27908;42.708;23.278;2022-07-19T12:32:49;63118.00;;;29.53;35.97
21879;BME280;27908;42.708;23.278;2022-07-19T12:35:15;63113.34;;;29.74;34.70
21879;BME280;27908;42.708;23.278;2022-07-19T12:37:45;63105.38;;;29.64;35.41
21879;BME280;27908;42.708;23.278;2022-07-19T12:40:20;63094.50;;;29.61;35.22
21879;BME280;27908;42.708;23.278;2022-07-19T12:42:59;63144.66;;;29.79;33.99
21879;BME280;27908;42.708;23.278;2022-07-19T12:45:27;63166.84;;;29.88;32.39
21879;BME280;27908;42.708;23.278;2022-07-19T12:47:53;63136.44;;;29.40;33.36
21879;BME280;27908;42.708;23.278;2022-07-19T12:50:20;63119.78;;;30.27;34.23
21879;BME280;27908;42.708;23.278;2022-07-19T12:52:46;63090.56;;;30.86;33.67
21879;BME280;27908;42.708;23.278;2022-07-19T12:55:12;63103.50;;;31.12;33.55
21879;BME280;27908;42.708;23.278;2022-07-19T12:57:37;63151.69;;;31.08;30.80
21879;BME280;27908;42.708;23.278;2022-07-19T13:00:03;63165.50;;;31.26;30.97
21879;BME280;27908;42.708;23.278;2022-07-19T13:02:29;63146.19;;;31.33;31.62
21879;BME280;27908;42.708;23.278;2022-07-19T13:04:55;63150.75;;;32.49;31.78
21879;BME280;27908;42.708;23.278;2022-07-19T13:07:20;63126.53;;;33.63;29.06
21879;BME280;27908;42.708;23.278;2022-07-19T13:09:46;63145.94;;;34.50;27.55